Time;durP1;ratioP1;P1;durP2;ratioP2;P2;SDS_P1;SDS_P2;PMS_P1;PMS_P2;Temp;Humidity;BMP_temperature;BMP_pressure;BME280_temperature;BME280_humidity;BME280_pressure;Samples;Min_cycle;Max_cycle;Signal;HPM_P1;HPM_P2
2023/01/07 00:01:40;;;;;;;11.82;6.32;;;8.70;99.90;;;;;;5001953;28;20050;-90
2023/01/07 00:04:13;;;;;;;11.23;6.18;;;9.50;99.90;;;;;;4998778;28;20091;-89
2023/01/07 00:06:41;;;;;;;10.45;6.45;;;9.50;99.90;;;;;;4997941;28;20131;-88
2023/01/07 00:09:15;;;;;;;8.10;6.00;;;9.60;99.90;;;;;;4998901;28;20058;-91
2023/01/07 00:11:44;;;;;;;8.57;5.90;;;9.60;99.90;;;;;;4996641;28;20053;-91
2023/01/07 00:14:16;;;;;;;9.35;6.35;;;9.60;99.90;;;;;;5018505;28;20487;-91
2023/01/07 00:16:45;;;;;;;11.30;6.15;;;9.70;99.90;;;;;;4986051;28;20049;-88
2023/01/07 00:19:16;;;;;;;9.02;6.13;;;9.60;99.90;;;;;;4981991;28;20054;-90
2023/01/07 00:21:44;;;;;;;9.68;6.88;;;9.60;99.90;;;;;;5016379;28;20053;-90
2023/01/07 00:24:24;;;;;;;11.45;7.03;;;9.60;99.90;;;;;;5011118;28;20053;-89
2023/01/07 00:27:00;;;;;;;15.15;7.03;;;8.50;99.90;;;;;;4993837;28;20575;-90
2023/01/07 00:29:31;;;;;;;11.57;6.78;;;10.50;99.90;;;;;;4997340;28;21879;-89
2023/01/07 00:32:04;;;;;;;12.63;7.65;;;10.00;99.90;;;;;;4992975;28;20120;-90
2023/01/07 00:34:33;;;;;;;10.82;7.32;;;9.80;99.90;;;;;;4976383;28;20042;-90
2023/01/07 00:39:51;;;;;;;11.48;7.28;;;9.50;99.90;;;;;;5020696;28;20050;-91
2023/01/07 00:45:09;;;;;;;11.98;7.53;;;9.80;99.90;;;;;;5017232;28;20158;-89
2023/01/07 00:47:38;;;;;;;14.05;8.05;;;9.80;99.90;;;;;;4994591;28;20037;-90
2023/01/07 00:50:07;;;;;;;12.05;8.00;;;9.80;99.90;;;;;;4994775;28;20084;-90
2023/01/07 00:53:03;;;;;;;;;;;;;;;;;;;;;
2023/01/07 00:55:36;;;;;;;15.02;8.50;;;9.90;99.90;;;;;;5014584;28;20057;-90
2023/01/07 00:58:02;;;;;;;10.30;7.75;;;9.90;99.90;;;;;;5014035;28;20145;-90
2023/01/07 01:00:30;;;;;;;9.57;7.65;;;9.30;99.90;;;;;;4999037;28;20472;-91
2023/01/07 01:02:59;;;;;;;13.35;8.02;;;9.90;99.90;;;;;;4994988;28;20119;-89
2023/01/07 01:05:50;;;;;;;10.77;7.97;;;9.80;99.90;;;;;;5009763;28;20119;-90
2023/01/07 01:08:36;;;;;;;;;;;;;;;;;;;;;
2023/01/07 01:11:06;;;;;;;;;;;9.20;99.90;;;;;;5011212;28;20046;-89
2023/01/07 01:13:44;;;;;;;13.63;8.02;;;10.00;99.90;;;;;;4990290;28;20375;-89
2023/01/07 01:16:32;;;;;;;13.73;8.18;;;9.90;99.90;;;;;;4995633;28;20137;-89
2023/01/07 01:19:01;;;;;;;11.70;7.60;;;9.90;99.90;;;;;;4993732;28;20046;-90
2023/01/07 01:21:31;;;;;;;11.82;7.50;;;9.90;99.90;;;;;;5004494;28;20053;-89
2023/01/07 01:23:59;;;;;;;12.88;7.45;;;9.90;99.90;;;;;;5012388;28;20042;-90
2023/01/07 01:26:30;;;;;;;9.68;7.50;;;9.90;99.90;;;;;;5033643;28;20084;-89
2023/01/07 01:28:59;;;;;;;11.25;7.82;;;9.50;99.90;;;;;;5008807;28;20063;-89
2023/01/07 01:31:27;;;;;;;12.25;7.72;;;10.00;99.90;;;;;;5012395;28;20144;-90
2023/01/07 01:33:54;;;;;;;12.23;7.25;;;9.80;99.90;;;;;;4996460;28;20388;-88
2023/01/07 01:36:25;;;;;;;8.63;6.57;;;10.00;99.90;;;;;;4994604;28;20045;-89
2023/01/07 01:39:04;;;;;;;;;;;;;;;;;;;;;
2023/01/07 01:41:40;;;;;;;9.40;7.13;;;9.10;99.90;;;;;;5001479;28;20117;-88
2023/01/07 01:44:44;;;;;;;10.18;6.70;;;10.10;99.90;;;;;;4998568;28;20038;-88
2023/01/07 01:47:40;;;;;;;11.57;6.65;;;9.30;99.90;;;;;;5011552;28;20049;-90
2023/01/07 01:50:31;;;;;;;8.30;6.82;;;9.30;99.90;;;;;;4992349;28;20054;-90
2023/01/07 01:53:09;;;;;;;7.20;5.72;;;9.30;99.90;;;;;;4991573;28;20088;-89
2023/01/07 01:56:02;;;;;;;9.57;6.22;;;10.00;99.90;;;;;;5001918;28;20565;-89
2023/01/07 01:59:00;;;;;;;;;;;;;;;;;;;;;
2023/01/07 02:01:27;;;;;;;7.90;5.43;;;8.80;99.90;;;;;;4996443;28;20045;-90
2023/01/07 02:03:53;;;;;;;8.93;5.72;;;10.10;99.90;;;;;;4995332;28;20050;-90
2023/01/07 02:06:31;;;;;;;10.48;6.00;;;10.00;99.90;;;;;;5027845;28;20121;-90
2023/01/07 02:09:00;;;;;;;8.77;5.85;;;10.00;99.90;;;;;;5010938;28;20064;-90
2023/01/07 02:12:03;;;;;;;9.68;6.78;;;10.50;99.90;;;;;;4997911;28;20566;-89
2023/01/07 02:14:46;;;;;;;9.77;7.13;;;10.10;99.90;;;;;;4993931;28;20041;-89
2023/01/07 02:17:42;;;;;;;10.82;7.78;;;10.10;99.90;;;;;;4997135;28;20042;-90
2023/01/07 02:20:31;;;;;;;9.77;7.50;;;10.10;99.90;;;;;;4995955;28;20041;-91
2023/01/07 02:23:06;;;;;;;8.52;7.63;;;10.10;99.90;;;;;;5013926;28;20053;-89
2023/01/07 02:26:15;;;;;;;12.57;10.60;;;10.00;99.90;;;;;;5012232;28;20049;-90
2023/01/07 02:29:02;;;;;;;17.40;12.90;;;10.00;99.90;;;;;;5017041;28;20065;-88
2023/01/07 02:32:33;;;;;;;16.00;13.82;;;10.00;99.90;;;;;;5009007;28;20045;-90
2023/01/07 02:35:29;;;;;;;18.67;14.70;;;10.00;99.90;;;;;;4909164;28;20051;-89
2023/01/07 02:38:10;;;;;;;;;;;;;;;;;;;;;
2023/01/07 02:41:27;;;;;;;18.80;15.10;;;10.00;99.90;;;;;;5006667;28;20062;-89
2023/01/07 02:44:05;;;;;;;17.00;14.83;;;10.20;99.90;;;;;;4993522;28;20054;-89
2023/01/07 02:47:22;;;;;;;18.00;14.93;;;10.00;99.90;;;;;;5011146;28;20045;-89
2023/01/07 02:50:01;;;;;;;17.05;14.57;;;10.00;99.90;;;;;;4890296;29;20056;-89
2023/01/07 02:52:53;;;;;;;16.80;14.55;;;10.00;99.90;;;;;;5000963;28;20057;-89
2023/01/07 02:55:41;;;;;;;18.63;15.43;;;10.00;99.90;;;;;;5002394;28;20053;-89
2023/01/07 02:58:43;;;;;;;17.98;15.25;;;11.00;99.90;;;;;;4994705;28;20054;-89
2023/01/07 03:01:39;;;;;;;17.67;15.02;;;9.90;99.90;;;;;;5014887;28;20105;-89
2023/01/07 03:04:12;;;;;;;18.50;15.48;;;9.90;99.90;;;;;;5015430;28;20103;-90
2023/01/07 03:07:37;;;;;;;19.65;15.27;;;9.90;99.90;;;;;;5014269;28;20077;-89
2023/01/07 03:10:15;;;;;;;17.92;15.43;;;9.90;99.90;;;;;;4916001;29;20574;-88
2023/01/07 03:13:21;;;;;;;20.45;15.43;;;8.80;99.90;;;;;;5016103;28;20054;-90
2023/01/07 03:16:06;;;;;;;;;;;;;;;;;;;;;
2023/01/07 03:18:41;;;;;;;18.55;14.93;;;9.70;99.90;;;;;;5013662;28;20555;-89
2023/01/07 03:21:12;;;;;;;20.23;15.00;;;9.80;99.90;;;;;;5013960;28;20046;-90
2023/01/07 03:23:55;;;;;;;18.70;15.60;;;9.70;99.90;;;;;;5014944;28;20510;-90
2023/01/07 03:26:39;;;;;;;;;;;;;;;;;;;;;
2023/01/07 03:29:21;;;;;;;16.90;13.65;;;9.70;99.90;;;;;;5015054;28;20050;-91
2023/01/07 03:32:03;;;;;;;18.52;13.77;;;9.70;99.90;;;;;;4997614;28;20042;-89
2023/01/07 03:34:33;;;;;;;18.92;14.48;;;9.60;99.90;;;;;;4995877;28;20084;-89
2023/01/07 03:37:08;;;;;;;18.52;13.80;;;10.00;99.90;;;;;;5000003;28;20055;-89
2023/01/07 03:39:46;;;;;;;19.20;12.93;;;9.70;99.90;;;;;;4996154;28;20108;-90
2023/01/07 03:42:41;;;;;;;17.05;12.98;;;9.60;99.90;;;;;;4992901;28;20881;-90
2023/01/07 03:45:33;;;;;;;15.80;12.70;;;9.70;99.90;;;;;;5015131;28;20041;-89
2023/01/07 03:48:12;;;;;;;;;;;;;;;;;;;;;
2023/01/07 03:50:41;;;;;;;17.33;11.55;;;9.60;99.90;;;;;;5014505;28;20081;-88
2023/01/07 03:53:15;;;;;;;16.58;12.68;;;9.60;99.90;;;;;;5018706;28;20376;-89
2023/01/07 03:56:05;;;;;;;;;;;;;;;;;;;;;
2023/01/07 03:58:31;;;;;;;15.52;12.05;;;9.50;99.90;;;;;;5000316;28;20050;-90
2023/01/07 04:01:04;;;;;;;16.58;11.63;;;9.50;99.90;;;;;;5011893;28;20056;-89
2023/01/07 04:03:33;;;;;;;16.98;11.98;;;9.60;99.90;;;;;;4996754;28;20064;-89
2023/01/07 04:05:59;;;;;;;15.65;12.15;;;9.60;99.90;;;;;;4996340;28;20080;-89
2023/01/07 04:08:27;;;;;;;16.35;11.70;;;9.50;99.90;;;;;;4995964;28;20076;-90
2023/01/07 04:10:56;;;;;;;14.85;11.15;;;9.50;99.90;;;;;;4997266;28;20483;-88
2023/01/07 04:13:22;;;;;;;16.67;11.68;;;9.50;99.90;;;;;;4998395;28;20529;-89
2023/01/07 04:15:48;;;;;;;15.57;12.75;;;9.30;99.90;;;;;;5000445;28;20172;-90
2023/01/07 04:18:21;;;;;;;20.05;12.32;;;9.40;99.90;;;;;;4995622;28;20042;-89
2023/01/07 04:20:51;;;;;;;16.58;12.77;;;8.70;99.90;;;;;;5010915;28;20049;-89
2023/01/07 04:23:24;;;;;;;16.20;12.20;;;9.20;99.90;;;;;;4992534;28;20041;-87
2023/01/07 04:25:59;;;;;;;18.33;13.50;;;9.30;99.90;;;;;;4984634;28;20529;-90
2023/01/07 04:28:25;;;;;;;16.95;12.40;;;9.30;99.90;;;;;;5012662;28;20057;-89
2023/01/07 04:30:59;;;;;;;19.85;13.68;;;9.30;99.90;;;;;;4998514;28;20567;-90
2023/01/07 04:33:25;;;;;;;18.65;13.98;;;9.30;99.90;;;;;;5017896;28;21075;-89
2023/01/07 04:35:53;;;;;;;17.88;13.82;;;9.20;99.90;;;;;;4983765;28;20531;-89
2023/01/07 04:38:21;;;;;;;20.15;13.10;;;9.20;99.90;;;;;;4975580;28;20053;-88
2023/01/07 04:40:55;;;;;;;18.77;14.20;;;9.20;99.90;;;;;;5008942;28;20069;-88
2023/01/07 04:43:29;;;;;;;18.77;14.02;;;9.10;99.90;;;;;;4995988;28;20129;-88
2023/01/07 04:46:00;;;;;;;25.00;13.38;;;9.00;99.90;;;;;;4995396;28;20096;-90
2023/01/07 04:48:28;;;;;;;20.30;14.18;;;9.10;99.90;;;;;;5016967;28;20060;-88
2023/01/07 04:51:06;;;;;;;20.83;14.55;;;9.00;99.90;;;;;;4997590;28;20108;-89
2023/01/07 04:53:32;;;;;;;21.17;14.82;;;9.10;99.90;;;;;;5014346;28;20124;-88
2023/01/07 04:56:07;;;;;;;20.42;14.52;;;9.20;99.90;;;;;;4993839;28;20042;-90
2023/01/07 04:58:36;;;;;;;20.75;14.40;;;9.00;99.90;;;;;;5000491;28;20049;-87
2023/01/07 05:01:05;;;;;;;20.38;14.57;;;9.00;99.90;;;;;;4995640;28;20053;-90
2023/01/07 05:03:33;;;;;;;22.52;16.10;;;9.00;99.90;;;;;;4991062;28;20077;-89
2023/01/07 05:06:02;;;;;;;21.60;14.60;;;9.00;99.90;;;;;;5009121;28;20559;-87
2023/01/07 05:08:34;;;;;;;21.90;15.27;;;9.00;99.90;;;;;;5014655;28;20046;-89
2023/01/07 05:11:03;;;;;;;21.92;15.30;;;9.00;99.90;;;;;;4990335;28;20077;-89
2023/01/07 05:13:34;;;;;;;21.17;14.57;;;7.80;99.90;;;;;;5008513;28;20038;-87
2023/01/07 05:16:01;;;;;;;21.88;15.05;;;9.00;99.90;;;;;;4998461;28;20068;-89
2023/01/07 05:18:33;;;;;;;23.42;15.35;;;8.90;99.90;;;;;;4994593;28;20050;-88
2023/01/07 05:20:59;;;;;;;23.55;15.05;;;8.80;99.90;;;;;;5011450;28;20088;-87
2023/01/07 05:23:37;;;;;;;20.52;15.00;;;8.90;99.90;;;;;;4982550;28;20550;-89
2023/01/07 05:26:06;;;;;;;24.65;15.52;;;8.90;99.90;;;;;;5009491;28;20964;-89
2023/01/07 05:28:34;;;;;;;20.25;14.40;;;8.80;99.90;;;;;;4993255;28;20042;-88
2023/01/07 05:31:01;;;;;;;22.50;15.25;;;8.90;99.90;;;;;;4995819;28;20495;-88
2023/01/07 05:33:29;;;;;;;21.05;14.10;;;8.90;99.90;;;;;;5002872;28;20041;-89
2023/01/07 05:35:58;;;;;;;21.85;14.55;;;8.90;99.90;;;;;;4995952;28;20052;-88
2023/01/07 05:38:29;;;;;;;21.75;14.52;;;8.90;99.90;;;;;;4998473;28;20053;-89
2023/01/07 05:40:59;;;;;;;23.15;15.63;;;8.90;99.90;;;;;;4995082;28;20151;-89
2023/01/07 05:43:28;;;;;;;21.88;13.68;;;8.90;99.90;;;;;;5010424;28;20096;-89
2023/01/07 05:45:54;;;;;;;20.50;13.00;;;8.80;99.90;;;;;;5014448;28;20075;-88
2023/01/07 05:48:31;;;;;;;22.70;14.75;;;8.80;99.90;;;;;;5008928;28;20057;-88
2023/01/07 05:50:56;;;;;;;;;;;9.10;99.90;;;;;;4978052;28;20053;-88
2023/01/07 05:53:22;;;;;;;20.25;12.93;;;10.10;99.90;;;;;;4997985;28;19921;-89
2023/01/07 05:55:48;;;;;;;18.20;13.35;;;8.80;99.90;;;;;;4997901;28;20050;-89
2023/01/07 05:58:17;;;;;;;20.15;13.38;;;8.80;99.90;;;;;;5010917;28;20114;-89
2023/01/07 06:00:46;;;;;;;20.73;13.43;;;8.80;99.90;;;;;;4993676;28;20062;-86
2023/01/07 06:03:16;;;;;;;19.88;13.75;;;8.80;99.90;;;;;;4993721;28;20128;-89
2023/01/07 06:05:50;;;;;;;16.67;12.45;;;9.00;99.90;;;;;;5016021;28;20037;-89
2023/01/07 06:08:18;;;;;;;19.58;12.73;;;8.80;99.90;;;;;;4996036;28;20165;-88
2023/01/07 06:10:44;;;;;;;19.75;13.00;;;8.80;99.90;;;;;;4991388;28;20052;-89
2023/01/07 06:13:31;;;;;;;16.83;12.35;;;8.90;99.90;;;;;;4992214;28;20033;-88
2023/01/07 06:16:08;;;;;;;19.08;13.20;;;8.90;99.90;;;;;;5004695;28;20058;-88
2023/01/07 06:18:37;;;;;;;18.92;11.90;;;8.90;99.90;;;;;;5020252;28;20128;-89
2023/01/07 06:21:04;;;;;;;19.80;11.57;;;8.90;99.90;;;;;;4992131;28;20084;-90
2023/01/07 06:23:32;;;;;;;22.15;12.57;;;8.80;99.90;;;;;;4995955;28;20064;-89
2023/01/07 06:26:03;;;;;;;19.48;11.77;;;8.80;99.90;;;;;;5014586;28;20042;-89
2023/01/07 06:28:32;;;;;;;19.65;11.98;;;9.10;99.90;;;;;;4995798;28;20046;-90
2023/01/07 06:31:01;;;;;;;15.60;11.40;;;8.80;99.90;;;;;;5000324;28;20673;-88
2023/01/07 06:33:37;;;;;;;16.20;11.73;;;8.80;99.90;;;;;;4995175;28;20138;-92
2023/01/07 06:36:03;;;;;;;;;;;8.90;99.90;;;;;;4995865;28;20062;-90
2023/01/07 06:38:29;;;;;;;17.08;12.05;;;8.60;99.90;;;;;;4993891;28;19925;-85
2023/01/07 06:40:58;;;;;;;20.42;12.10;;;8.80;99.90;;;;;;5012400;28;20083;-87
2023/01/07 06:43:24;;;;;;;19.77;12.45;;;8.80;99.90;;;;;;5007537;28;20045;-90
2023/01/07 06:45:50;;;;;;;17.70;11.90;;;8.80;99.90;;;;;;4996964;28;20045;-88
2023/01/07 06:48:18;;;;;;;17.20;12.18;;;8.20;99.90;;;;;;4995888;28;20134;-89
2023/01/07 06:50:45;;;;;;;18.95;11.85;;;8.90;99.90;;;;;;4974389;28;20049;-88
2023/01/07 06:53:10;;;;;;;19.45;11.60;;;8.90;99.90;;;;;;4996525;28;20132;-86
2023/01/07 06:55:36;;;;;;;21.95;12.38;;;9.00;99.90;;;;;;5011088;28;20133;-86
2023/01/07 06:58:07;;;;;;;19.75;11.32;;;8.90;99.90;;;;;;4992976;28;20046;-86
2023/01/07 07:00:33;;;;;;;21.63;12.35;;;7.70;99.90;;;;;;4979284;28;20100;-86
2023/01/07 07:03:08;;;;;;;17.80;11.93;;;8.90;99.90;;;;;;5007502;28;20041;-88
2023/01/07 07:05:36;;;;;;;19.20;12.13;;;8.90;99.90;;;;;;4998310;28;20050;-87
2023/01/07 07:08:02;;;;;;;16.35;13.40;;;8.80;99.90;;;;;;4993121;28;20046;-87
2023/01/07 07:10:28;;;;;;;18.17;12.23;;;7.80;99.90;;;;;;4977445;28;20050;-87
2023/01/07 07:12:57;;;;;;;20.35;12.10;;;9.00;99.90;;;;;;5011240;28;20132;-87
2023/01/07 07:15:26;;;;;;;17.90;12.05;;;8.90;99.90;;;;;;4992984;28;20050;-87
2023/01/07 07:17:51;;;;;;;17.60;11.25;;;8.70;99.90;;;;;;5010287;28;20045;-88
2023/01/07 07:20:17;;;;;;;17.13;11.38;;;8.80;99.90;;;;;;5008070;28;20099;-85
2023/01/07 07:22:45;;;;;;;18.52;12.50;;;8.80;99.90;;;;;;4997256;28;20042;-87
2023/01/07 07:25:13;;;;;;;21.08;12.27;;;8.80;99.90;;;;;;5008574;28;20125;-88
2023/01/07 07:27:39;;;;;;;19.77;12.60;;;8.90;99.90;;;;;;4993189;28;20085;-87
2023/01/07 07:30:14;;;;;;;16.98;12.05;;;9.80;99.90;;;;;;5008727;28;20070;-92
2023/01/07 07:32:49;;;;;;;18.65;11.07;;;9.00;99.90;;;;;;5009012;28;20042;-89
2023/01/07 07:35:18;;;;;;;15.73;11.30;;;8.90;99.90;;;;;;4997022;28;20041;-90
2023/01/07 07:37:54;;;;;;;18.85;11.73;;;8.90;99.90;;;;;;5015347;28;20124;-90
2023/01/07 07:40:29;;;;;;;15.93;10.68;;;8.00;99.90;;;;;;4997056;28;20069;-89
2023/01/07 07:42:58;;;;;;;17.73;10.93;;;9.40;99.90;;;;;;4996044;28;20045;-91
2023/01/07 07:45:37;;;;;;;16.90;10.07;;;7.90;99.90;;;;;;5000424;28;20042;-90
2023/01/07 07:48:07;;;;;;;15.75;11.00;;;8.80;99.90;;;;;;4960664;28;20134;-89
2023/01/07 07:50:43;;;;;;;16.05;10.75;;;8.90;99.90;;;;;;5017243;28;20156;-89
2023/01/07 07:53:12;;;;;;;13.57;10.02;;;8.00;99.90;;;;;;4984535;28;20058;-90
2023/01/07 07:55:48;;;;;;;15.00;10.05;;;8.90;99.90;;;;;;5001112;28;20057;-91
2023/01/07 07:58:18;;;;;;;17.35;10.07;;;8.90;99.90;;;;;;4974613;28;20125;-92
2023/01/07 08:00:46;;;;;;;14.75;9.82;;;8.90;99.90;;;;;;5013852;28;20510;-93
2023/01/07 08:03:12;;;;;;;14.93;9.88;;;8.80;99.90;;;;;;4995360;28;20052;-90
2023/01/07 08:05:50;;;;;;;13.48;9.20;;;9.00;99.90;;;;;;4994615;28;20088;-90
2023/01/07 08:08:21;;;;;;;15.88;8.90;;;9.00;99.90;;;;;;5012974;28;20049;-90
2023/01/07 08:10:47;;;;;;;13.85;8.85;;;9.70;99.90;;;;;;4982355;28;20056;-90
2023/01/07 08:13:22;;;;;;;12.07;9.43;;;8.90;99.90;;;;;;4998963;28;20049;-91
2023/01/07 08:15:58;;;;;;;12.85;8.23;;;9.00;99.90;;;;;;4992351;28;20049;-89
2023/01/07 08:18:27;;;;;;;9.25;7.38;;;9.10;99.90;;;;;;4991538;28;20387;-87
2023/01/07 08:21:00;;;;;;;13.48;8.35;;;9.00;99.90;;;;;;4993101;28;20407;-88
2023/01/07 08:23:30;;;;;;;13.45;8.02;;;8.60;99.90;;;;;;5010491;28;20639;-89
2023/01/07 08:26:01;;;;;;;13.82;7.38;;;8.90;99.90;;;;;;4978929;28;20057;-90
2023/01/07 08:28:29;;;;;;;12.25;6.93;;;9.00;99.90;;;;;;4992577;28;20060;-89
2023/01/07 08:30:55;;;;;;;8.82;6.53;;;8.90;99.90;;;;;;4996564;28;20081;-89
2023/01/07 08:33:23;;;;;;;10.55;6.90;;;8.90;99.90;;;;;;4992971;28;20038;-88
2023/01/07 08:35:52;;;;;;;9.10;6.30;;;8.90;99.90;;;;;;4977578;28;20050;-89
2023/01/07 08:38:30;;;;;;;8.82;6.28;;;9.00;99.90;;;;;;4996247;28;20092;-88
2023/01/07 08:40:56;;;;;;;8.88;6.43;;;9.00;99.90;;;;;;5000522;28;20057;-88
2023/01/07 08:43:34;;;;;;;;;;;;;;;;;;;;;
2023/01/07 08:46:03;;;;;;;10.98;5.97;;;9.20;99.90;;;;;;5014146;28;20038;-87
2023/01/07 08:48:29;;;;;;;8.63;6.10;;;9.20;99.90;;;;;;5013316;28;20478;-88
2023/01/07 08:50:57;;;;;;;6.45;4.88;;;9.30;99.90;;;;;;4985701;28;20042;-88
2023/01/07 08:53:38;;;;;;;8.60;5.50;;;8.30;99.90;;;;;;4995530;28;20117;-88
2023/01/07 08:56:06;;;;;;;7.50;5.30;;;8.70;99.90;;;;;;5009666;28;20046;-88
2023/01/07 08:58:37;;;;;;;9.25;5.47;;;8.50;99.90;;;;;;5010314;28;20056;-88
2023/01/07 09:01:07;;;;;;;7.93;5.38;;;8.70;99.90;;;;;;5022812;28;20038;-89
2023/01/07 09:03:47;;;;;;;8.38;4.47;;;9.60;99.90;;;;;;5003776;28;20078;-89
2023/01/07 09:06:12;;;;;;;7.05;4.18;;;9.50;99.90;;;;;;5002028;28;20057;-87
2023/01/07 09:08:39;;;;;;;6.22;3.97;;;9.50;99.90;;;;;;5013233;28;20529;-87
2023/01/07 09:11:05;;;;;;;5.60;3.92;;;9.50;99.90;;;;;;5015044;28;20050;-87
2023/01/07 09:13:31;;;;;;;5.88;3.35;;;9.50;99.90;;;;;;5014070;28;20045;-86
2023/01/07 09:16:03;;;;;;;7.38;4.05;;;9.50;99.90;;;;;;4999021;28;20054;-85
2023/01/07 09:18:29;;;;;;;5.93;3.92;;;9.40;99.90;;;;;;5015198;28;20152;-86
2023/01/07 09:21:00;;;;;;;6.35;3.70;;;9.40;99.90;;;;;;5018318;28;20042;-87
2023/01/07 09:23:39;;;;;;;;;;;;;;;;;;;;;
2023/01/07 09:26:05;;;;;;;6.43;3.53;;;9.30;99.90;;;;;;5021973;28;20050;-87
2023/01/07 09:28:34;;;;;;;5.93;3.20;;;9.40;99.90;;;;;;5024649;28;20099;-85
2023/01/07 09:31:01;;;;;;;5.13;2.83;;;9.30;99.90;;;;;;5028922;28;20061;-86
2023/01/07 09:33:30;;;;;;;6.65;3.40;;;9.30;99.90;;;;;;5019584;28;20046;-88
2023/01/07 09:35:56;;;;;;;5.60;2.80;;;9.30;99.90;;;;;;5017349;28;20079;-87
2023/01/07 09:38:31;;;;;;;5.03;2.97;;;9.30;99.90;;;;;;5019149;28;20064;-88
2023/01/07 09:41:00;;;;;;;5.45;2.90;;;9.40;99.90;;;;;;5001381;28;20046;-87
2023/01/07 09:43:44;;;;;;;4.90;3.00;;;9.20;99.90;;;;;;5037282;28;20094;-86
2023/01/07 09:46:14;;;;;;;6.65;3.10;;;9.30;99.90;;;;;;5022214;28;20026;-87
2023/01/07 09:48:49;;;;;;;3.53;2.60;;;9.30;99.90;;;;;;5031010;28;20376;-86
2023/01/07 09:51:18;;;;;;;4.67;2.70;;;9.40;99.90;;;;;;5018621;28;20118;-86
2023/01/07 09:53:54;;;;;;;6.13;3.13;;;9.40;99.90;;;;;;4997382;28;20304;-87
2023/01/07 09:56:26;;;;;;;3.88;2.60;;;9.50;99.90;;;;;;5000258;28;20049;-86
2023/01/07 09:58:57;;;;;;;3.95;2.35;;;9.40;99.90;;;;;;5021341;28;20037;-91
2023/01/07 10:01:52;;;;;;;5.07;2.42;;;9.50;99.90;;;;;;5004957;28;20056;-87
2023/01/07 10:04:24;;;;;;;4.25;2.67;;;9.50;99.90;;;;;;5002018;28;20372;-88
2023/01/07 10:06:50;;;;;;;4.97;2.30;;;9.40;99.90;;;;;;5003053;28;20076;-86
2023/01/07 10:09:41;;;;;;;5.18;2.28;;;9.50;99.90;;;;;;5004033;28;20515;-88
2023/01/07 10:12:30;;;;;;;6.25;2.33;;;9.60;99.90;;;;;;5000951;28;20108;-87
2023/01/07 10:15:02;;;;;;;3.25;2.08;;;9.70;99.90;;;;;;5002231;28;20042;-88
2023/01/07 10:17:53;;;;;;;3.17;2.03;;;9.90;99.90;;;;;;4999274;28;20193;-89
2023/01/07 10:20:32;;;;;;;3.42;2.28;;;10.30;99.90;;;;;;4997552;28;20137;-87
2023/01/07 10:23:31;;;;;;;4.57;2.10;;;10.60;99.90;;;;;;5002790;28;20095;-87
2023/01/07 10:26:02;;;;;;;4.35;1.70;;;10.90;99.90;;;;;;4984300;28;20059;-87
2023/01/07 10:28:39;;;;;;;3.45;1.58;;;10.60;99.90;;;;;;5017924;28;20529;-87
2023/01/07 10:31:18;;;;;;;3.83;1.85;;;10.50;99.90;;;;;;5015580;28;20410;-87
2023/01/07 10:33:48;;;;;;;3.33;1.65;;;9.40;99.90;;;;;;5014445;28;20133;-87
2023/01/07 10:36:37;;;;;;;3.00;1.63;;;10.30;99.90;;;;;;5015577;28;20049;-88
2023/01/07 10:39:38;;;;;;;4.20;1.90;;;10.40;99.90;;;;;;5017480;28;20052;-85
2023/01/07 10:42:26;;;;;;;2.90;1.52;;;10.40;99.90;;;;;;4998210;28;20124;-87
2023/01/07 10:45:28;;;;;;;3.60;1.65;;;10.20;99.90;;;;;;5019556;28;20181;-86
2023/01/07 10:48:17;;;;;;;3.22;1.58;;;10.20;99.90;;;;;;4996431;28;20401;-87
2023/01/07 10:51:27;;;;;;;2.30;1.50;;;10.10;99.90;;;;;;5014023;28;20045;-87
2023/01/07 10:54:09;;;;;;;2.65;1.58;;;10.10;99.90;;;;;;5018129;28;20056;-86
2023/01/07 10:56:40;;;;;;;2.40;1.50;;;10.20;99.90;;;;;;5000036;28;20042;-88
2023/01/07 10:59:21;;;;;;;3.20;1.60;;;10.10;99.90;;;;;;5016979;28;20048;-86
2023/01/07 11:01:54;;;;;;;2.13;1.30;;;10.00;99.90;;;;;;4998612;28;20050;-87
2023/01/07 11:04:20;;;;;;;2.80;1.42;;;10.10;99.90;;;;;;4995880;28;20046;-86
2023/01/07 11:06:57;;;;;;;2.05;1.33;;;10.00;99.90;;;;;;4991638;28;20043;-85
2023/01/07 11:09:29;;;;;;;2.85;1.30;;;10.10;99.90;;;;;;4997542;28;20045;-86
2023/01/07 11:12:07;;;;;;;2.33;1.60;;;10.10;99.90;;;;;;5008377;28;20520;-87
2023/01/07 11:14:39;;;;;;;2.75;1.48;;;10.00;99.90;;;;;;4998067;28;20042;-89
2023/01/07 11:17:17;;;;;;;2.55;1.10;;;10.10;99.90;;;;;;4982849;28;20049;-87
2023/01/07 11:19:48;;;;;;;2.55;1.48;;;10.10;99.90;;;;;;5012765;28;20037;-88
2023/01/07 11:22:35;;;;;;;2.47;1.48;;;10.10;99.90;;;;;;5031738;28;20132;-88
2023/01/07 11:25:21;;;;;;;3.67;1.65;;;10.10;99.90;;;;;;4999094;28;20128;-89
2023/01/07 11:27:46;;;;;;;6.45;1.95;;;10.10;99.90;;;;;;4997506;28;20068;-88
2023/01/07 11:30:26;;;;;;;2.45;1.55;;;10.20;99.90;;;;;;4995735;28;20469;-86
2023/01/07 11:33:02;;;;;;;2.35;1.45;;;10.20;99.90;;;;;;5010222;28;20053;-86
2023/01/07 11:35:31;;;;;;;3.33;1.20;;;10.30;99.90;;;;;;5011582;28;20049;-85
2023/01/07 11:37:58;;;;;;;1.70;1.17;;;10.30;99.90;;;;;;4995206;28;20049;-85
2023/01/07 11:40:33;;;;;;;2.38;1.20;;;10.40;99.90;;;;;;4997100;28;20049;-85
2023/01/07 11:43:02;;;;;;;2.30;1.20;;;10.20;99.90;;;;;;5028807;28;20054;-84
2023/01/07 11:45:31;;;;;;;2.60;1.30;;;10.20;99.90;;;;;;5013955;28;20521;-85
2023/01/07 11:48:09;;;;;;;2.00;1.10;;;10.20;99.90;;;;;;4993565;28;20050;-87
2023/01/07 11:50:41;;;;;;;2.10;1.13;;;10.20;99.90;;;;;;5012226;28;20045;-87
2023/01/07 11:53:10;;;;;;;1.67;0.90;;;10.20;99.90;;;;;;5012033;28;20764;-89
2023/01/07 11:55:36;;;;;;;1.70;1.20;;;10.20;99.90;;;;;;4998438;28;20388;-87
2023/01/07 11:58:03;;;;;;;2.40;1.10;;;9.10;99.90;;;;;;4981081;28;20045;-88
2023/01/07 12:00:30;;;;;;;1.33;0.88;;;10.20;99.90;;;;;;4983978;28;20054;-86
2023/01/07 12:03:11;;;;;;;1.55;1.00;;;10.20;99.90;;;;;;5011729;28;20062;-88
2023/01/07 12:05:38;;;;;;;2.22;0.90;;;10.20;99.90;;;;;;4992771;28;20037;-87
2023/01/07 12:08:13;;;;;;;1.63;1.00;;;9.60;99.90;;;;;;4999983;28;20050;-89
2023/01/07 12:10:44;;;;;;;1.92;1.02;;;10.20;99.90;;;;;;5012540;28;20057;-85
2023/01/07 12:13:20;;;;;;;2.38;1.10;;;10.30;99.90;;;;;;5014438;28;20041;-87
2023/01/07 12:15:58;;;;;;;2.08;1.10;;;10.30;99.90;;;;;;5008733;28;20052;-87
2023/01/07 12:18:42;;;;;;;2.35;1.30;;;10.40;99.90;;;;;;5009124;28;20049;-87
2023/01/07 12:21:32;;;;;;;3.10;1.23;;;10.30;99.90;;;;;;4998259;28;20156;-87
2023/01/07 12:24:09;;;;;;;2.17;1.10;;;9.50;99.90;;;;;;4998874;28;20120;-86
2023/01/07 12:26:55;;;;;;;1.88;1.00;;;10.30;99.90;;;;;;5016748;28;20049;-86
2023/01/07 12:29:35;;;;;;;1.45;0.90;;;10.30;99.90;;;;;;4997801;28;20116;-88
2023/01/07 12:32:14;;;;;;;1.85;1.23;;;10.30;99.90;;;;;;5030532;28;20046;-88
2023/01/07 12:35:09;;;;;;;2.63;1.48;;;10.30;99.90;;;;;;5015431;28;20120;-86
2023/01/07 12:37:52;;;;;;;2.10;1.40;;;10.40;99.90;;;;;;4994350;28;20132;-86
2023/01/07 12:40:30;;;;;;;2.28;1.40;;;10.20;99.90;;;;;;5018668;28;20605;-88
2023/01/07 12:43:03;;;;;;;2.53;1.50;;;10.30;99.90;;;;;;4993975;28;20052;-87
2023/01/07 12:45:45;;;;;;;1.92;1.20;;;10.40;99.90;;;;;;5013960;28;20054;-87
2023/01/07 12:48:24;;;;;;;5.57;3.67;;;10.30;99.90;;;;;;5011054;28;20064;-87
2023/01/07 12:50:54;;;;;;;2.25;1.40;;;10.30;99.90;;;;;;4990353;28;20133;-88
2023/01/07 12:53:43;;;;;;;2.00;1.35;;;10.30;99.90;;;;;;4996928;28;20056;-88
2023/01/07 12:56:25;;;;;;;1.98;1.40;;;10.30;99.90;;;;;;5008668;28;20062;-87
2023/01/07 12:58:53;;;;;;;1.98;1.38;;;9.50;99.90;;;;;;5011504;28;20050;-88
2023/01/07 13:01:33;;;;;;;2.10;1.45;;;10.50;99.90;;;;;;4993479;28;20399;-88
2023/01/07 13:04:13;;;;;;;3.28;1.55;;;10.30;99.90;;;;;;5010005;28;20593;-86
2023/01/07 13:07:03;;;;;;;2.72;1.30;;;10.20;99.90;;;;;;5013953;28;20054;-87
2023/01/07 13:09:44;;;;;;;2.30;1.30;;;9.50;99.90;;;;;;5023493;28;20050;-86
2023/01/07 13:12:45;;;;;;;2.42;1.20;;;10.20;99.90;;;;;;4997627;28;20061;-90
2023/01/07 13:15:21;;;;;;;2.25;1.48;;;10.20;99.90;;;;;;4997657;28;20505;-85
2023/01/07 13:17:52;;;;;;;3.03;1.42;;;10.20;99.90;;;;;;4995130;28;20046;-85
2023/01/07 13:20:43;;;;;;;2.28;1.20;;;10.20;99.90;;;;;;4995569;28;20701;-87
2023/01/07 13:23:32;;;;;;;2.20;1.30;;;10.20;99.90;;;;;;5012388;28;20506;-87
2023/01/07 13:26:27;;;;;;;2.33;1.35;;;10.20;99.90;;;;;;5020173;28;20073;-87
2023/01/07 13:29:08;;;;;;;3.08;1.63;;;10.20;99.90;;;;;;5016659;28;20160;-87
2023/01/07 13:31:55;;;;;;;2.15;1.45;;;10.20;99.90;;;;;;4996523;28;20061;-89
2023/01/07 13:34:49;;;;;;;2.85;1.45;;;10.20;99.90;;;;;;4996096;28;20046;-87
2023/01/07 13:37:42;;;;;;;3.50;1.45;;;10.20;99.90;;;;;;5015654;28;20133;-87
2023/01/07 13:40:26;;;;;;;2.45;1.40;;;10.10;99.90;;;;;;4995227;28;20086;-86
2023/01/07 13:42:57;;;;;;;2.17;1.40;;;10.10;99.90;;;;;;4995586;28;20057;-87
2023/01/07 13:45:48;;;;;;;2.45;1.40;;;10.20;99.90;;;;;;4996616;28;20975;-89
2023/01/07 13:48:20;;;;;;;2.90;1.80;;;10.00;99.90;;;;;;4998183;28;20061;-88